Time;durP1;ratioP1;P1;durP2;ratioP2;P2;SDS_P1;SDS_P2;PMS_P1;PMS_P2;Temp;Humidity;BMP_temperature;BMP_pressure;BME280_temperature;BME280_humidity;BME280_pressure;Samples;Min_cycle;Max_cycle;Signal;HPM_P1;HPM_P2
2022/01/03 00:01:40;;;;;;;4.73;2.07;;;;;;;12.36;57.23;99032.34;5002292;28;20239;-68
2022/01/03 00:04:09;;;;;;;3.93;2.20;;;;;;;12.30;57.23;99033.94;5003557;28;20225;-68
2022/01/03 00:06:38;;;;;;;4.47;2.60;;;;;;;12.51;57.42;99049.03;5000890;28;20229;-69
2022/01/03 00:09:06;;;;;;;6.93;2.43;;;;;;;12.27;56.89;99042.34;5002886;28;20567;-68
2022/01/03 00:11:35;;;;;;;4.20;2.40;;;;;;;12.45;56.40;99028.44;5017415;28;20221;-69
2022/01/03 00:14:02;;;;;;;2.70;2.50;;;;;;;12.68;55.89;99024.56;5008683;28;20225;-68
2022/01/03 00:16:30;;;;;;;3.10;2.03;;;;;;;12.27;56.37;99009.47;5004258;28;20222;-69
2022/01/03 00:18:58;;;;;;;5.50;2.60;;;;;;;12.63;56.17;99011.81;5006031;28;20548;-69
2022/01/03 00:21:39;;;;;;;6.33;1.90;;;;;;;12.89;55.39;99000.31;5007393;28;20225;-69
2022/01/03 00:24:08;;;;;;;7.27;2.20;;;;;;;12.41;55.75;99019.19;5015062;28;20224;-69
2022/01/03 00:26:37;;;;;;;5.80;2.83;;;;;;;12.64;55.88;99026.00;5022099;28;20259;-69
2022/01/03 00:29:16;;;;;;;4.17;2.10;;;;;;;12.61;55.89;99035.25;5021641;28;20217;-69
2022/01/03 00:31:43;;;;;;;3.33;1.80;;;;;;;12.38;56.42;99053.50;5009332;28;20267;-69
2022/01/03 00:34:12;;;;;;;5.20;1.97;;;;;;;12.60;56.25;99027.44;5011210;28;20235;-69
2022/01/03 00:36:40;;;;;;;7.60;2.60;;;;;;;12.66;56.12;99030.13;5006588;28;20614;-69
2022/01/03 00:39:09;;;;;;;5.07;2.17;;;;;;;12.95;55.72;99017.44;5008879;28;20233;-69
2022/01/03 00:41:42;;;;;;;7.40;2.23;;;;;;;12.84;55.42;99018.03;5008598;28;20521;-69
2022/01/03 00:44:10;;;;;;;4.40;2.37;;;;;;;12.72;56.09;99027.69;5007990;28;20225;-69
2022/01/03 00:46:37;;;;;;;7.97;2.10;;;;;;;12.78;55.42;99014.34;5006563;28;20259;-69
2022/01/03 00:49:05;;;;;;;5.47;2.50;;;;;;;12.79;55.69;99031.22;5007954;28;20227;-69
2022/01/03 00:51:33;;;;;;;6.13;2.30;;;;;;;12.72;55.91;99038.38;5006477;28;20267;-69
2022/01/03 00:54:01;;;;;;;7.07;2.13;;;;;;;12.87;55.63;99007.75;5007509;28;20220;-69
2022/01/03 00:56:31;;;;;;;6.40;2.53;;;;;;;13.28;55.29;98994.34;5003569;28;20496;-69
2022/01/03 00:59:06;;;;;;;7.67;2.60;;;;;;;12.88;55.67;99004.03;5006673;28;20693;-69
2022/01/03 01:01:46;;;;;;;5.40;2.40;;;;;;;12.46;55.12;99008.69;5006237;28;20239;-69
2022/01/03 01:04:14;;;;;;;5.83;2.43;;;;;;;12.47;56.43;99036.25;5009729;28;20764;-69
2022/01/03 01:06:42;;;;;;;10.43;2.73;;;;;;;12.99;55.60;99009.81;5002039;28;20233;-69
2022/01/03 01:09:12;;;;;;;6.13;2.60;;;;;;;13.17;55.41;98993.94;5024145;28;20235;-69
2022/01/03 01:11:44;;;;;;;8.43;2.47;;;;;;;13.23;54.97;99005.66;5005674;28;20227;-69
2022/01/03 01:14:13;;;;;;;4.50;2.10;;;;;;;13.15;54.65;99020.06;5004823;28;20222;-69
2022/01/03 01:16:40;;;;;;;6.53;2.90;;;;;;;13.44;54.58;99012.66;5004209;28;20291;-69
2022/01/03 01:19:09;;;;;;;6.23;2.10;;;;;;;12.76;55.56;99048.47;5004947;28;20235;-69
2022/01/03 01:21:37;;;;;;;5.50;2.73;;;;;;;13.11;54.95;99034.09;5003858;28;20221;-69
2022/01/03 01:24:04;;;;;;;3.13;2.17;;;;;;;13.31;54.13;99026.06;5005713;28;20252;-69
2022/01/03 01:29:17;;;;;;;4.03;2.33;;;;;;;13.33;54.83;99026.69;5010769;28;20228;-69
2022/01/03 01:31:53;;;;;;;5.77;2.13;;;;;;;13.11;55.64;99034.09;5022842;28;20735;-69
2022/01/03 01:34:27;;;;;;;4.40;2.40;;;;;;;13.11;54.88;99034.09;5023470;28;20231;-69
2022/01/03 01:36:57;;;;;;;6.00;2.00;;;;;;;12.73;55.63;99051.56;5026508;28;20228;-68
2022/01/03 01:39:27;;;;;;;6.63;2.40;;;;;;;12.95;55.98;99043.34;5026489;28;20637;-69
2022/01/03 01:42:03;;;;;;;6.50;2.37;;;;;;;12.53;55.82;99064.88;5026459;28;20221;-69
2022/01/03 01:44:33;;;;;;;8.57;2.50;;;;;;;13.24;55.13;99024.22;5024612;28;20228;-69
2022/01/03 01:47:04;;;;;;;5.00;2.57;;;;;;;12.68;56.33;99059.34;5041055;28;20563;-69
2022/01/03 01:49:38;;;;;;;3.43;2.43;;;;;;;13.32;54.77;99022.34;5027233;28;20255;-69
2022/01/03 01:52:15;;;;;;;7.53;2.60;;;;;;;13.31;54.56;99018.84;5026248;28;20229;-69
2022/01/03 01:54:59;;;;;;;7.50;2.43;;;;;;;13.13;54.75;99024.00;5023600;28;20240;-69
2022/01/03 01:57:56;;;;;;;5.87;1.90;;;;;;;12.43;56.33;99051.88;5016920;28;20216;-69
2022/01/03 02:00:25;;;;;;;6.50;2.80;;;;;;;13.04;55.15;99021.53;5021022;28;20229;-69
2022/01/03 02:03:10;;;;;;;5.60;2.40;;;;;;;12.98;55.49;99033.06;5020797;28;20239;-69
2022/01/03 02:05:41;;;;;;;7.07;2.90;;;;;;;13.17;55.38;99038.63;5012442;28;20255;-69
2022/01/03 02:08:25;;;;;;;5.57;2.83;;;;;;;13.47;54.56;99022.94;5021575;28;20837;-69
2022/01/03 02:10:58;;;;;;;5.10;2.37;;;;;;;12.33;56.93;99076.34;5006360;28;20230;-69
2022/01/03 02:13:25;;;;;;;7.93;2.60;;;;;;;12.53;56.42;99064.88;5013154;28;20223;-69
2022/01/03 02:15:59;;;;;;;6.07;2.30;;;;;;;13.03;55.81;99043.97;5006197;28;20226;-69
2022/01/03 02:18:27;;;;;;;9.73;2.60;;;;;;;13.32;54.96;99031.22;5021127;28;20603;-69
2022/01/03 02:20:54;;;;;;;5.73;2.20;;;;;;;12.77;55.75;99050.13;5005983;28;20237;-69
2022/01/03 02:23:21;;;;;;;7.27;2.50;;;;;;;12.63;56.16;99059.13;5021963;28;20236;-69
2022/01/03 02:25:48;;;;;;;4.80;2.37;;;;;;;12.68;56.13;99060.19;5005512;28;20237;-69
2022/01/03 02:28:20;;;;;;;8.33;2.10;;;;;;;12.86;55.57;99046.22;5005952;28;20725;-69
2022/01/03 02:30:48;;;;;;;5.53;2.57;;;;;;;12.89;55.64;99047.69;5006113;28;20455;-69
2022/01/03 02:33:15;;;;;;;6.83;2.40;;;;;;;13.71;54.26;99018.81;5008958;28;20236;-69
2022/01/03 02:35:43;;;;;;;5.60;2.73;;;;;;;13.24;54.99;99031.44;5004773;28;20235;-69
2022/01/03 02:38:10;;;;;;;6.30;2.60;;;;;;;13.11;55.16;99034.09;5006050;28;20213;-69
2022/01/03 02:40:38;;;;;;;6.20;2.37;;;;;;;12.83;55.42;99056.53;5013699;28;20240;-69
2022/01/03 02:43:05;;;;;;;6.40;2.83;;;;;;;13.20;55.12;99036.38;5005814;28;20233;-69
2022/01/03 02:45:32;;;;;;;9.27;2.50;;;;;;;12.63;55.51;99064.47;5005745;28;20728;-69
2022/01/03 02:48:01;;;;;;;6.13;2.47;;;;;;;12.94;55.72;99047.88;5005376;28;20236;-69
2022/01/03 02:50:31;;;;;;;4.70;2.43;;;;;;;12.33;55.83;99070.97;5005891;28;20236;-69
2022/01/03 02:52:58;;;;;;;9.17;2.77;;;;;;;12.62;56.38;99077.03;5005627;28;20725;-69
2022/01/03 02:55:26;;;;;;;7.47;2.73;;;;;;;12.84;55.39;99055.50;5005169;28;20228;-68
2022/01/03 02:57:55;;;;;;;5.00;2.20;;;;;;;12.65;55.68;99078.50;5005949;28;20488;-69
2022/01/03 03:00:26;;;;;;;6.90;2.43;;;;;;;12.57;56.20;99076.81;5005557;28;20604;-68
2022/01/03 03:02:53;;;;;;;9.13;2.30;;;;;;;13.10;55.29;99048.50;5005645;28;20235;-68
2022/01/03 03:05:21;;;;;;;6.27;2.30;;;;;;;13.41;54.61;99038.00;5004820;28;20727;-69
2022/01/03 03:07:49;;;;;;;9.97;3.00;;;;;;;13.04;55.50;99050.16;5007069;28;20221;-69
2022/01/03 03:10:19;;;;;;;8.00;3.10;;;;;;;13.41;54.43;99019.25;5007902;28;20221;-69
2022/01/03 03:12:47;;;;;;;5.97;2.30;;;;;;;12.76;56.30;99085.13;5020781;28;20361;-68
2022/01/03 03:15:15;;;;;;;12.43;2.80;;;;;;;12.63;56.43;99083.19;5005484;28;20223;-68
2022/01/03 03:17:44;;;;;;;5.90;2.30;;;;;;;12.41;56.28;99098.56;5018719;28;20217;-69
2022/01/03 03:20:15;;;;;;;7.30;2.37;;;;;;;13.04;55.08;99059.03;5028473;28;20239;-68
2022/01/03 03:22:42;;;;;;;7.20;2.53;;;;;;;12.61;55.91;99079.91;5005438;28;20236;-69
2022/01/03 03:25:19;;;;;;;8.43;3.30;;;;;;;12.85;55.88;99074.03;5005135;28;20221;-69
2022/01/03 03:27:50;;;;;;;7.23;2.87;;;;;;;12.88;54.89;99057.56;5004057;28;20255;-69
2022/01/03 03:30:21;;;;;;;7.17;2.97;;;;;;;12.93;55.77;99064.97;5005442;28;20260;-69
2022/01/03 03:32:52;;;;;;;9.77;3.00;;;;;;;12.77;54.94;99070.72;5006401;28;20233;-69
2022/01/03 03:35:20;;;;;;;9.90;3.10;;;;;;;12.12;56.39;99116.53;5000225;28;20232;-69
2022/01/03 03:37:47;;;;;;;7.63;2.47;;;;;;;12.70;55.75;99084.06;5006023;28;20229;-68
2022/01/03 03:40:14;;;;;;;6.43;2.87;;;;;;;12.84;54.99;99072.38;5005913;28;20229;-68
2022/01/03 03:42:42;;;;;;;6.07;2.40;;;;;;;12.93;55.06;99064.97;5006324;28;20233;-69
2022/01/03 03:45:10;;;;;;;5.90;2.67;;;;;;;12.40;56.11;99103.09;5006971;28;20243;-69
2022/01/03 03:47:37;;;;;;;6.43;2.60;;;;;;;12.84;55.19;99066.22;5010199;28;20225;-68
2022/01/03 03:50:05;;;;;;;7.73;2.60;;;;;;;12.89;55.45;99053.03;5009595;28;20474;-69
2022/01/03 03:52:32;;;;;;;10.30;3.60;;;;;;;12.40;56.34;99078.22;5024644;28;20229;-69
2022/01/03 03:54:59;;;;;;;8.23;2.20;;;;;;;12.17;57.86;99105.25;5008460;28;20229;-69
2022/01/03 03:57:26;;;;;;;10.07;3.00;;;;;;;12.40;57.64;99078.22;5008391;28;20221;-69
2022/01/03 03:59:53;;;;;;;12.17;2.77;;;;;;;12.10;57.83;99086.50;5010402;28;20231;-68
2022/01/03 04:02:20;;;;;;;5.83;2.23;;;;;;;11.70;58.72;99121.81;5009186;28;20227;-69
2022/01/03 04:04:48;;;;;;;5.27;2.40;;;;;;;11.97;58.45;99089.94;5009595;28;20241;-69
2022/01/03 04:07:15;;;;;;;5.83;2.33;;;;;;;11.45;60.88;99108.06;5024907;28;20236;-70
2022/01/03 04:09:42;;;;;;;5.87;2.20;;;;;;;11.51;61.42;99103.78;5008295;28;20226;-69
2022/01/03 04:12:09;;;;;;;4.57;2.30;;;;;;;11.81;60.58;99079.56;5009823;28;20244;-68
2022/01/03 04:14:36;;;;;;;4.80;2.07;;;;;;;11.52;60.97;99090.25;5023275;28;20561;-68
2022/01/03 04:17:03;;;;;;;3.90;1.60;;;;;;;11.96;59.74;99059.72;5027446;28;20235;-68
2022/01/03 04:19:30;;;;;;;4.03;1.90;;;;;;;11.69;60.03;99077.41;5028971;28;20742;-69
2022/01/03 04:21:57;;;;;;;3.33;1.97;;;;;;;11.80;59.67;99068.03;5029350;28;20221;-68
2022/01/03 04:24:23;;;;;;;3.63;2.40;;;;;;;11.97;59.03;99079.25;5013402;28;20225;-68
2022/01/03 04:26:53;;;;;;;4.87;1.70;;;;;;;12.06;57.62;99061.22;5009467;28;20237;-68
2022/01/03 04:29:20;;;;;;;3.60;2.17;;;;;;;12.06;59.24;99078.06;5008425;28;20226;-68
2022/01/03 04:31:47;;;;;;;3.90;2.23;;;;;;;12.41;58.50;99045.06;5007406;28;20232;-68
2022/01/03 04:34:15;;;;;;;4.20;1.50;;;;;;;12.55;58.01;99032.59;5008297;28;20236;-74
2022/01/03 04:36:42;;;;;;;2.50;2.10;;;;;;;12.17;59.17;99067.84;4992198;28;20229;-68
2022/01/03 04:39:09;;;;;;;6.40;2.10;;;;;;;11.61;60.48;99090.09;5011261;28;20232;-68
2022/01/03 04:41:36;;;;;;;9.30;2.80;;;;;;;12.52;58.77;99045.31;5007129;28;20225;-68
2022/01/03 04:44:05;;;;;;;3.50;2.70;;;;;;;11.98;60.23;99088.09;5016010;28;20228;-68
2022/01/03 04:46:34;;;;;;;5.43;2.30;;;;;;;10.98;63.11;99104.19;5011207;28;20233;-68
2022/01/03 04:49:03;;;;;;;4.03;2.03;;;;;;;11.43;61.60;99094.06;5006651;28;20245;-67
2022/01/03 04:51:30;;;;;;;3.17;1.70;;;;;;;11.32;63.41;99083.94;5009311;28;20240;-68
2022/01/03 04:53:57;;;;;;;4.90;2.37;;;;;;;11.32;61.35;99091.94;5008576;28;20236;-68
2022/01/03 04:56:27;;;;;;;5.47;1.97;;;;;;;10.79;64.69;99105.56;5023109;28;20220;-68
2022/01/03 04:58:55;;;;;;;7.83;2.30;;;;;;;12.11;60.79;99038.19;5042445;28;20987;-68
2022/01/03 05:01:23;;;;;;;6.73;2.40;;;;;;;10.69;64.53;99131.72;5015261;28;20232;-68
2022/01/03 05:03:55;;;;;;;6.47;2.20;;;;;;;11.47;62.67;99084.66;5007729;28;20232;-68
2022/01/03 05:06:22;;;;;;;6.63;2.80;;;;;;;11.55;61.68;99083.69;5006655;28;20225;-68
2022/01/03 05:08:49;;;;;;;6.43;2.20;;;;;;;11.59;61.66;99074.28;5006986;28;20240;-68
2022/01/03 05:11:15;;;;;;;5.40;2.37;;;;;;;11.39;62.01;99071.47;5007611;28;20236;-68
2022/01/03 05:13:43;;;;;;;7.07;2.50;;;;;;;11.94;60.24;99037.72;5008644;28;20231;-68
2022/01/03 05:16:10;;;;;;;6.60;2.43;;;;;;;11.61;61.25;99068.75;5007834;28;20221;-68
2022/01/03 05:18:37;;;;;;;7.93;2.90;;;;;;;11.88;60.14;99040.34;5007844;28;20669;-68
2022/01/03 05:21:04;;;;;;;9.13;2.40;;;;;;;11.26;62.06;99096.19;5008217;28;20229;-68
2022/01/03 05:23:32;;;;;;;4.43;2.03;;;;;;;11.59;61.79;99075.09;5014319;28;20596;-68
2022/01/03 05:25:59;;;;;;;6.63;3.20;;;;;;;11.85;60.57;99057.59;5027459;28;20255;-68
2022/01/03 05:28:26;;;;;;;4.67;2.40;;;;;;;11.66;60.33;99056.44;5027461;28;20713;-68
2022/01/03 05:30:53;;;;;;;8.97;2.40;;;;;;;12.38;59.69;99024.06;5017680;28;20240;-68
2022/01/03 05:33:20;;;;;;;8.60;2.53;;;;;;;11.78;60.61;99067.41;5008157;28;20229;-68
2022/01/03 05:35:47;;;;;;;8.27;2.60;;;;;;;12.01;60.39;99059.13;5016963;28;20239;-68
2022/01/03 05:38:14;;;;;;;10.17;2.93;;;;;;;12.07;60.31;99061.03;5018797;28;20219;-68
2022/01/03 05:40:41;;;;;;;7.10;2.57;;;;;;;11.94;61.06;99083.16;5042867;28;20650;-68
2022/01/03 05:43:10;;;;;;;7.40;2.37;;;;;;;12.25;59.71;99047.09;5025357;28;20634;-68
2022/01/03 05:45:37;;;;;;;5.73;2.67;;;;;;;12.36;59.78;99050.22;5025429;28;20236;-68
2022/01/03 05:48:05;;;;;;;6.97;2.60;;;;;;;12.29;59.93;99059.06;5027408;28;20228;-68
2022/01/03 05:50:32;;;;;;;10.73;2.93;;;;;;;12.21;60.34;99064.56;5025732;28;20232;-68
2022/01/03 05:52:59;;;;;;;6.23;2.50;;;;;;;12.39;59.62;99047.13;5025678;28;20623;-68
2022/01/03 05:55:26;;;;;;;8.50;3.03;;;;;;;12.63;59.38;99046.59;5027106;28;20220;-68
2022/01/03 05:57:54;;;;;;;7.57;3.00;;;;;;;12.61;59.43;99043.28;5022907;28;20450;-68
2022/01/03 06:00:23;;;;;;;8.13;3.20;;;;;;;12.51;59.36;99041.00;5007448;28;20237;-68
2022/01/03 06:02:55;;;;;;;6.83;2.50;;;;;;;11.71;61.10;99085.25;5006171;28;20243;-68
2022/01/03 06:08:16;;;;;;;12.23;2.80;;;;;;;12.53;59.47;99046.16;4998021;28;20233;-68
2022/01/03 06:10:42;;;;;;;8.17;3.33;;;;;;;12.64;58.90;99032.16;5005486;28;20233;-68
2022/01/03 06:13:09;;;;;;;10.03;2.93;;;;;;;12.57;59.21;99039.38;5007321;28;20464;-68
2022/01/03 06:15:38;;;;;;;7.00;3.10;;;;;;;12.13;60.30;99076.25;5007203;28;20225;-68
2022/01/03 06:18:10;;;;;;;6.83;2.30;;;;;;;12.52;59.57;99039.97;5006751;28;20233;-68
2022/01/03 06:20:45;;;;;;;7.23;2.80;;;;;;;12.05;60.78;99072.91;5006387;28;20671;-68
2022/01/03 06:23:15;;;;;;;6.47;2.53;;;;;;;11.94;60.96;99066.31;5007293;28;20685;-68
2022/01/03 06:25:42;;;;;;;8.73;2.63;;;;;;;12.22;59.62;99036.78;5007017;28;20802;-68
2022/01/03 06:28:10;;;;;;;9.27;2.83;;;;;;;12.11;59.92;99051.56;5007066;28;20237;-68
2022/01/03 06:30:38;;;;;;;9.27;2.80;;;;;;;12.27;59.61;99045.03;5007087;28;20712;-68
2022/01/03 06:33:07;;;;;;;5.23;2.10;;;;;;;12.22;59.23;99034.13;5007181;28;20229;-68
2022/01/03 06:35:34;;;;;;;8.07;3.03;;;;;;;12.25;60.02;99049.75;5012401;28;20223;-68
2022/01/03 06:38:04;;;;;;;8.80;2.90;;;;;;;12.07;60.05;99058.34;5018089;28;20956;-68
2022/01/03 06:40:31;;;;;;;7.93;3.37;;;;;;;11.61;60.88;99077.56;5025971;28;20742;-68
2022/01/03 06:42:57;;;;;;;8.60;2.60;;;;;;;11.84;60.64;99068.47;5022638;28;20528;-68
2022/01/03 06:45:24;;;;;;;9.60;3.57;;;;;;;11.78;60.57;99056.72;5026002;28;20266;-68
2022/01/03 06:47:56;;;;;;;11.00;2.80;;;;;;;11.71;60.96;99050.50;5026700;28;20236;-68
2022/01/03 06:50:23;;;;;;;8.43;3.10;;;;;;;11.99;59.88;99033.59;5025781;28;20224;-68
2022/01/03 06:52:50;;;;;;;6.77;3.20;;;;;;;12.11;59.69;99016.00;5026362;28;20233;-68
2022/01/03 06:55:17;;;;;;;5.13;2.70;;;;;;;12.02;60.55;99041.22;5012189;28;20223;-68
2022/01/03 06:57:44;;;;;;;8.60;2.90;;;;;;;11.64;61.21;99071.03;5006352;28;20233;-68
2022/01/03 07:00:12;;;;;;;9.27;3.83;;;;;;;12.19;60.23;99021.16;5006624;28;20225;-68
2022/01/03 07:02:42;;;;;;;11.60;2.87;;;;;;;12.46;59.10;99015.88;5017719;28;20238;-68
2022/01/03 07:05:12;;;;;;;10.20;3.13;;;;;;;12.14;60.42;99036.97;5003387;28;20731;-68
2022/01/03 07:07:39;;;;;;;13.23;3.37;;;;;;;11.97;61.02;99055.19;5025331;28;20233;-68
2022/01/03 07:10:09;;;;;;;5.03;2.47;;;;;;;12.02;61.28;99054.59;5001445;28;20614;-68
2022/01/03 07:12:36;;;;;;;8.97;2.90;;;;;;;11.92;61.52;99057.63;5028614;28;20604;-68
2022/01/03 07:20:35;;;;;;;9.07;3.27;;;;;;;11.87;61.95;99050.22;5009764;28;20467;-68
2022/01/03 07:23:02;;;;;;;9.63;2.87;;;;;;;12.11;61.55;99024.84;5025641;28;20237;-68
2022/01/03 07:25:29;;;;;;;7.67;2.80;;;;;;;12.27;60.69;99012.13;5008815;28;20225;-68
2022/01/03 07:27:56;;;;;;;5.57;3.07;;;;;;;12.50;60.21;98993.88;4993229;28;20711;-68
2022/01/03 07:30:23;;;;;;;9.30;3.20;;;;;;;12.20;61.09;99027.34;5017650;28;20227;-68
2022/01/03 07:32:53;;;;;;;7.80;2.70;;;;;;;12.04;61.34;99032.00;5010097;28;20646;-68
2022/01/03 07:35:21;;;;;;;7.17;2.77;;;;;;;12.44;60.49;99008.03;5009634;28;20744;-68
2022/01/03 07:37:49;;;;;;;8.00;3.40;;;;;;;12.75;60.04;98985.31;5010184;28;20225;-68
2022/01/03 07:40:16;;;;;;;10.47;3.60;;;;;;;12.49;60.28;99005.59;5009975;28;20220;-68
2022/01/03 07:42:43;;;;;;;7.97;2.43;;;;;;;12.40;60.36;99016.69;5010047;28;20225;-68
2022/01/03 07:45:11;;;;;;;11.33;3.60;;;;;;;12.43;59.63;99008.28;5008752;28;20713;-68
2022/01/03 07:47:38;;;;;;;10.17;3.00;;;;;;;12.02;60.89;99038.56;5009453;28;20229;-68
2022/01/03 07:50:07;;;;;;;6.23;2.73;;;;;;;11.73;61.47;99059.97;5010286;28;20225;-68
2022/01/03 07:52:35;;;;;;;9.80;3.07;;;;;;;11.97;61.02;99036.47;5009406;28;20225;-68
2022/01/03 07:55:04;;;;;;;5.53;3.00;;;;;;;11.73;61.22;99056.47;5009629;28;20229;-68
2022/01/03 07:57:31;;;;;;;9.70;2.90;;;;;;;11.97;60.36;99036.47;5009861;28;20232;-68
2022/01/03 07:59:58;;;;;;;12.30;3.47;;;;;;;12.12;59.78;99014.94;5009550;28;20659;-68
2022/01/03 08:02:25;;;;;;;9.20;2.57;;;;;;;12.66;58.46;98981.97;5009392;28;20221;-68
2022/01/03 08:04:53;;;;;;;10.47;3.00;;;;;;;11.99;59.34;99037.13;5009712;28;20242;-68
2022/01/03 08:07:19;;;;;;;9.43;3.37;;;;;;;11.85;60.40;99041.56;5009945;28;20220;-68
2022/01/03 08:09:46;;;;;;;8.53;3.10;;;;;;;11.94;59.23;99037.72;5009827;28;20231;-68
2022/01/03 08:12:13;;;;;;;11.70;3.30;;;;;;;12.72;57.86;98993.69;5009355;28;20226;-68
2022/01/03 08:14:40;;;;;;;11.30;3.67;;;;;;;12.72;57.75;99000.91;5009071;28;20230;-68
2022/01/03 08:17:08;;;;;;;13.20;3.17;;;;;;;13.16;57.11;98992.28;5028035;28;20236;-68
2022/01/03 08:19:34;;;;;;;11.63;3.20;;;;;;;12.62;57.34;99007.47;5029179;28;20227;-68
2022/01/03 08:22:02;;;;;;;9.37;3.43;;;;;;;12.15;58.32;99043.97;5029333;28;20280;-68
2022/01/03 08:24:29;;;;;;;7.00;2.87;;;;;;;12.13;59.00;99062.06;5028950;28;20704;-68
2022/01/03 08:26:56;;;;;;;8.90;3.57;;;;;;;12.18;58.61;99054.28;5010949;28;20616;-68
2022/01/03 08:29:24;;;;;;;10.93;3.47;;;;;;;12.10;59.04;99065.13;5008413;28;20595;-68
2022/01/03 08:31:51;;;;;;;11.37;3.20;;;;;;;12.39;58.69;99042.59;5006886;28;20232;-68
2022/01/03 08:34:18;;;;;;;5.67;2.87;;;;;;;12.10;58.85;99055.25;5007065;28;20255;-68
2022/01/03 08:36:45;;;;;;;9.83;3.13;;;;;;;12.49;58.15;99031.53;5015912;28;20238;-68
2022/01/03 08:39:12;;;;;;;9.70;3.73;;;;;;;12.37;57.66;99035.81;5010451;28;20731;-68
2022/01/03 08:41:39;;;;;;;9.27;3.00;;;;;;;12.03;58.92;99069.63;5023753;28;20222;-68
2022/01/03 08:44:07;;;;;;;7.07;2.40;;;;;;;12.64;57.66;99028.69;5008983;28;20225;-68
2022/01/03 08:46:34;;;;;;;10.17;2.80;;;;;;;12.69;57.53;99021.69;5006998;28;20711;-68
2022/01/03 08:49:02;;;;;;;7.73;2.40;;;;;;;12.30;57.84;99043.81;5009012;28;20660;-68
2022/01/03 08:51:29;;;;;;;9.73;3.20;;;;;;;12.24;58.66;99053.47;5008777;28;20221;-68
2022/01/03 08:53:56;;;;;;;9.30;3.07;;;;;;;12.76;57.56;99018.22;5008583;28;20228;-68
2022/01/03 08:56:23;;;;;;;9.73;3.93;;;;;;;12.82;56.86;99006.72;5007562;28;20606;-68
2022/01/03 08:58:52;;;;;;;9.20;3.00;;;;;;;13.39;56.02;98989.16;5008673;28;20239;-68
2022/01/03 09:01:19;;;;;;;9.23;3.00;;;;;;;13.01;56.36;99008.56;5023971;28;20237;-68
2022/01/03 09:03:50;;;;;;;10.03;3.20;;;;;;;12.80;56.73;99014.09;5008322;28;20325;-68
2022/01/03 09:06:18;;;;;;;9.27;2.40;;;;;;;12.29;57.79;99048.34;5007916;28;20236;-68
2022/01/03 09:08:46;;;;;;;8.43;2.90;;;;;;;12.60;57.69;99032.81;5008477;28;20240;-69
2022/01/03 09:11:14;;;;;;;8.17;3.00;;;;;;;12.20;57.99;99044.19;5008346;28;20229;-68
2022/01/03 09:13:41;;;;;;;9.47;3.33;;;;;;;12.45;57.54;99033.78;5008591;28;20245;-68
2022/01/03 09:16:08;;;;;;;6.53;3.17;;;;;;;12.82;56.33;98996.81;5018188;28;20228;-68
2022/01/03 09:18:37;;;;;;;5.97;2.80;;;;;;;12.71;56.71;99013.44;5027330;28;20226;-68
2022/01/03 09:21:05;;;;;;;8.27;2.63;;;;;;;11.93;58.53;99052.09;5039809;28;20240;-68
2022/01/03 09:23:36;;;;;;;9.47;2.43;;;;;;;12.97;55.78;98982.44;5008964;28;20240;-68
2022/01/03 09:28:49;;;;;;;7.77;3.37;;;;;;;12.75;55.91;98997.84;5007547;28;20640;-68
2022/01/03 09:31:18;;;;;;;9.97;3.17;;;;;;;13.13;55.56;98979.31;5008370;28;20235;-68
2022/01/03 09:33:45;;;;;;;7.80;2.63;;;;;;;13.05;56.00;98976.84;5007998;28;20308;-68
2022/01/03 09:36:12;;;;;;;9.90;3.03;;;;;;;12.39;57.03;99021.22;5007243;28;20255;-68
2022/01/03 09:38:39;;;;;;;8.30;2.67;;;;;;;12.58;56.91;99011.59;5007743;28;20251;-68
2022/01/03 09:41:07;;;;;;;9.40;3.80;;;;;;;12.49;56.99;99010.13;5006375;28;20241;-68
2022/01/03 09:43:47;;;;;;;11.17;4.20;;;;;;;12.76;56.48;98983.44;5013051;28;20223;-68
2022/01/03 09:46:19;;;;;;;9.57;4.17;;;;;;;12.88;56.37;98982.63;5042253;28;20251;-68
2022/01/03 09:48:52;;;;;;;9.60;3.33;;;;;;;12.63;57.23;99001.09;5027583;28;20714;-68
2022/01/03 09:51:21;;;;;;;7.00;2.70;;;;;;;13.20;55.76;98958.72;5027521;28;20250;-68
2022/01/03 09:53:49;;;;;;;6.83;3.17;;;;;;;13.21;55.61;98971.06;5024622;28;20235;-68
2022/01/03 09:56:17;;;;;;;7.57;3.13;;;;;;;13.24;56.19;98980.53;4999263;28;20225;-68
2022/01/03 09:58:45;;;;;;;10.87;3.13;;;;;;;13.32;55.67;98980.34;5007843;28;20619;-68
2022/01/03 10:01:12;;;;;;;11.40;2.57;;;;;;;13.26;55.72;98979.28;5008165;28;20718;-68
2022/01/03 10:03:47;;;;;;;6.83;3.17;;;;;;;13.68;54.97;98954.09;5022794;28;20309;-68
2022/01/03 10:06:17;;;;;;;9.17;2.97;;;;;;;13.01;56.82;99005.88;4998622;28;20574;-68
2022/01/03 10:08:44;;;;;;;11.30;3.50;;;;;;;12.75;57.23;99022.75;5022715;28;20241;-68
2022/01/03 10:11:12;;;;;;;8.00;3.30;;;;;;;12.64;57.55;99013.44;5007050;28;20231;-68
2022/01/03 10:13:40;;;;;;;7.87;3.00;;;;;;;12.73;57.32;99007.91;5007647;28;20236;-68
2022/01/03 10:16:08;;;;;;;9.90;3.37;;;;;;;12.81;57.22;99007.72;5017841;28;20224;-68
2022/01/03 10:18:35;;;;;;;9.87;3.87;;;;;;;12.53;57.70;99016.72;5026304;28;20231;-68
2022/01/03 10:21:03;;;;;;;7.33;3.30;;;;;;;12.93;56.69;98983.84;5010676;28;20229;-68
2022/01/03 10:23:30;;;;;;;7.07;3.20;;;;;;;12.76;57.22;98996.81;5027502;28;20686;-68
2022/01/03 10:26:17;;;;;;;10.47;3.53;;;;;;;13.29;56.14;98963.81;5008193;28;20226;-68
2022/01/03 10:28:44;;;;;;;11.90;2.87;;;;;;;12.92;56.89;98985.72;5021158;28;20615;-68
2022/01/03 10:31:19;;;;;;;9.43;2.80;;;;;;;12.97;56.70;98985.91;5007099;28;20239;-68
2022/01/03 10:34:03;;;;;;;8.60;3.63;;;;;;;13.11;56.65;98980.56;5006852;28;20739;-68
2022/01/03 10:36:37;;;;;;;9.87;2.90;;;;;;;12.86;56.40;98995.38;5005795;28;20222;-68
2022/01/03 10:39:21;;;;;;;8.70;3.50;;;;;;;12.74;57.13;99001.53;5006842;28;20594;-68
2022/01/03 10:42:11;;;;;;;5.37;2.50;;;;;;;12.65;57.41;99004.41;5007176;28;20221;-68
2022/01/03 10:44:41;;;;;;;8.77;3.50;;;;;;;13.20;56.26;98985.50;5005728;28;20251;-68
2022/01/03 10:47:15;;;;;;;9.27;3.60;;;;;;;13.13;56.03;98973.94;5006836;28;20233;-68
2022/01/03 10:49:44;;;;;;;9.93;3.27;;;;;;;13.42;55.94;98967.31;5006346;28;20718;-68
2022/01/03 10:52:24;;;;;;;8.20;3.37;;;;;;;13.31;55.98;98969.81;5006668;28;20222;-68
2022/01/03 10:55:06;;;;;;;12.00;3.33;;;;;;;13.77;54.60;98948.25;5003261;28;20235;-68
2022/01/03 10:57:46;;;;;;;8.27;3.07;;;;;;;13.93;55.11;98946.97;5015527;28;20256;-68
2022/01/03 11:03:47;;;;;;;13.73;4.40;;;;;;;11.16;61.48;98978.25;5052701;28;20574;-69
2022/01/03 11:06:24;;;;;;;10.47;3.10;;;;;;;11.62;59.90;98976.88;5043106;28;20667;-69
2022/01/03 11:11:43;;;;;;;6.37;3.20;;;;;;;11.79;59.13;98962.19;5008137;28;20225;-67
2022/01/03 11:14:42;;;;;;;8.47;3.10;;;;;;;11.87;59.16;98951.34;5004092;28;20462;-68
2022/01/03 11:17:29;;;;;;;7.30;3.30;;;;;;;11.72;59.86;98950.63;5003620;28;20229;-69
2022/01/03 11:19:59;;;;;;;6.43;2.70;;;;;;;11.53;60.81;98966.38;5018777;28;20225;-68
2022/01/03 11:22:48;;;;;;;10.70;3.17;;;;;;;12.37;58.62;98910.94;5003793;28;20228;-69
2022/01/03 11:25:29;;;;;;;8.17;3.40;;;;;;;11.57;60.27;98953.47;4995096;28;20252;-68
2022/01/03 11:27:56;;;;;;;6.77;3.10;;;;;;;11.98;59.50;98931.22;5003769;28;20583;-69
2022/01/03 11:30:24;;;;;;;9.77;3.00;;;;;;;11.62;59.21;98936.81;5003570;28;20708;-69
2022/01/03 11:32:52;;;;;;;7.90;2.97;;;;;;;12.00;59.81;98910.47;5003618;28;20731;-68
2022/01/03 11:35:20;;;;;;;7.17;2.77;;;;;;;10.95;61.40;98966.63;5003211;28;20237;-68
2022/01/03 11:37:48;;;;;;;9.10;2.97;;;;;;;11.24;61.79;98946.06;5003410;28;20409;-69
2022/01/03 11:40:17;;;;;;;12.70;3.17;;;;;;;12.66;57.63;98864.25;4986281;28;20234;-68
2022/01/03 11:42:45;;;;;;;7.03;3.07;;;;;;;12.18;59.47;98891.19;4982688;28;20256;-69
2022/01/03 11:45:12;;;;;;;5.53;2.70;;;;;;;12.82;57.58;98865.69;4991810;28;20231;-68
2022/01/03 11:47:39;;;;;;;8.20;3.20;;;;;;;12.28;58.36;98902.28;5003347;28;20485;-68
2022/01/03 11:50:08;;;;;;;7.27;3.63;;;;;;;13.23;56.78;98840.44;5042931;23;20214;-66
2022/01/03 11:52:43;;;;;;;6.70;3.50;;;;;;;12.55;57.67;98886.28;5021955;28;21290;-66
2022/01/03 11:55:16;;;;;;;10.97;4.20;;;;;;;12.24;58.36;98893.06;5022146;28;20217;-66
2022/01/03 12:03:39;;;;;;;11.27;3.90;;;;;;;10.91;62.01;98937.84;4991977;28;20233;-66
2022/01/03 12:06:09;;;;;;;7.03;3.10;;;;;;;12.76;57.57;98834.41;5002296;28;20235;-65
2022/01/03 12:08:38;;;;;;;8.00;3.00;;;;;;;13.09;57.21;98808.59;5001984;28;20793;-66